Time,TemperatureF,DewpointF,PressureIn,WindDirection,WindDirectionDegrees,WindSpeedMPH,WindSpeedGustMPH,Humidity,HourlyPrecipIn,Conditions,Clouds,dailyrainin,SoftwareType,DateUTC
2013-03-01 00:05:00,30.6,25.1,29.70,ENE,67,3.1,-999.0,80,-99.99,,,0.00,Acu-Link.com,2013-03-01 05:05:00,
2013-03-01 00:20:00,30.6,25.4,29.70,East,90,2.2,-999.0,81,-99.99,,,0.00,Acu-Link.com,2013-03-01 05:20:00,
2013-03-01 00:35:00,30.4,25.0,29.70,ESE,112,1.6,-999.0,80,-99.99,,,0.00,Acu-Link.com,2013-03-01 05:35:00,
2013-03-01 00:50:00,30.4,25.3,29.69,NE,45,1.6,-999.0,81,-99.99,,,0.00,Acu-Link.com,2013-03-01 05:50:00,
2013-03-01 01:05:00,30.4,25.3,29.69,SSE,157,2.2,-999.0,81,-99.99,,,0.00,Acu-Link.com,2013-03-01 06:05:00,
2013-03-01 01:21:00,30.4,25.8,29.69,NW,315,1.6,-999.0,83,-99.99,,,0.00,Acu-Link.com,2013-03-01 06:21:00,
2013-03-01 01:36:00,30.4,25.6,29.68,ENE,67,1.6,-999.0,82,-99.99,,,0.00,Acu-Link.com,2013-03-01 06:36:00,
2013-03-01 01:51:00,30.4,25.6,29.68,ENE,67,2.7,-999.0,82,-99.99,,,0.00,Acu-Link.com,2013-03-01 06:51:00,
2013-03-01 02:06:00,30.4,25.6,29.68,WNW,292,3.1,-999.0,82,-99.99,,,0.00,Acu-Link.com,2013-03-01 07:06:00,
2013-03-01 02:21:00,30.4,25.6,29.68,East,90,1.6,-999.0,82,-99.99,,,0.00,Acu-Link.com,2013-03-01 07:21:00,
2013-03-01 02:37:00,30.4,25.6,29.68,West,270,4.3,-999.0,82,-99.99,,,0.00,Acu-Link.com,2013-03-01 07:37:00,
2013-03-01 02:52:00,30.4,26.1,29.67,ESE,112,0.0,-999.0,84,-99.99,,,0.00,Acu-Link.com,2013-03-01 07:52:00,
2013-03-01 03:07:00,30.4,26.1,29.66,NNW,337,3.1,-999.0,84,-99.99,,,0.00,Acu-Link.com,2013-03-01 08:07:00,
2013-03-01 03:22:00,30.4,26.1,29.66,SW,225,3.8,-999.0,84,-99.99,,,0.00,Acu-Link.com,2013-03-01 08:22:00,
2013-03-01 03:37:00,30.4,26.1,29.66,NE,45,3.8,-999.0,84,-99.99,,,0.00,Acu-Link.com,2013-03-01 08:37:00,
2013-03-01 03:53:00,30.4,26.1,29.66,NNE,22,1.6,-999.0,84,-99.99,,,0.00,Acu-Link.com,2013-03-01 08:53:00,
2013-03-01 04:19:00,30.4,26.1,29.67,ENE,67,2.2,-999.0,84,-99.99,,,0.00,Acu-Link.com,2013-03-01 09:19:00,
2013-03-01 04:34:00,30.4,26.1,29.68,NNW,337,2.7,-999.0,84,-99.99,,,0.00,Acu-Link.com,2013-03-01 09:34:00,
2013-03-01 04:49:00,30.6,26.3,29.69,NNE,22,0.0,-999.0,84,-99.99,,,0.00,Acu-Link.com,2013-03-01 09:49:00,
2013-03-01 05:04:00,30.6,26.0,29.69,ESE,112,1.6,-999.0,83,-99.99,,,0.00,Acu-Link.com,2013-03-01 10:04:00,
2013-03-01 05:20:00,30.7,26.5,29.69,West,270,1.1,-999.0,84,-99.99,,,0.00,Acu-Link.com,2013-03-01 10:20:00,
2013-03-01 05:35:00,30.6,26.6,29.69,NNE,22,1.1,-999.0,85,-99.99,,,0.00,Acu-Link.com,2013-03-01 10:35:00,
2013-03-01 05:50:00,30.4,26.7,29.70,SSW,202,3.1,-999.0,86,-99.99,,,0.00,Acu-Link.com,2013-03-01 10:50:00,
2013-03-01 06:05:00,30.4,26.7,29.69,ENE,67,2.2,-999.0,86,-99.99,,,0.00,Acu-Link.com,2013-03-01 11:05:00,
2013-03-01 06:20:00,30.4,26.7,29.69,North,0,1.1,-999.0,86,-99.99,,,0.00,Acu-Link.com,2013-03-01 11:20:00,
2013-03-01 06:36:00,30.4,27.0,29.68,ENE,67,2.7,-999.0,87,-99.99,,,0.00,Acu-Link.com,2013-03-01 11:36:00,
2013-03-01 06:51:00,30.4,27.0,29.68,West,270,1.6,-999.0,87,-99.99,,,0.00,Acu-Link.com,2013-03-01 11:51:00,
2013-03-01 07:06:00,30.4,27.0,29.69,East,90,1.1,-999.0,87,-99.99,,,0.00,Acu-Link.com,2013-03-01 12:06:00,
2013-03-01 07:21:00,30.4,26.7,29.68,ESE,112,2.2,-999.0,86,-99.99,,,0.00,Acu-Link.com,2013-03-01 12:21:00,
2013-03-01 07:37:00,30.6,26.6,29.69,NW,315,0.0,-999.0,85,-99.99,,,0.00,Acu-Link.com,2013-03-01 12:37:00,
2013-03-01 07:52:00,30.7,27.1,29.70,NW,315,0.0,-999.0,86,-99.99,,,0.00,Acu-Link.com,2013-03-01 12:52:00,
2013-03-01 08:07:00,30.9,27.0,29.70,ESE,112,1.1,-999.0,85,-99.99,,,0.00,Acu-Link.com,2013-03-01 13:07:00,
2013-03-01 08:22:00,31.8,27.5,29.71,SE,135,2.7,-999.0,84,-99.99,,,0.00,Acu-Link.com,2013-03-01 13:22:00,
2013-03-01 08:37:00,32.7,27.8,29.71,ENE,67,1.6,-999.0,82,-99.99,,,0.00,Acu-Link.com,2013-03-01 13:37:00,
2013-03-01 08:53:00,33.3,27.8,29.71,SSE,157,0.0,-999.0,80,-99.99,,,0.00,Acu-Link.com,2013-03-01 13:53:00,
2013-03-01 09:08:00,34.0,28.5,29.71,NNE,22,0.0,-999.0,80,-99.99,,,0.00,Acu-Link.com,2013-03-01 14:08:00,
2013-03-01 09:23:00,34.7,28.9,29.71,SSE,157,2.2,-999.0,79,-99.99,,,0.00,Acu-Link.com,2013-03-01 14:23:00,
2013-03-01 09:38:00,34.9,29.0,29.71,ESE,112,2.7,-999.0,79,-99.99,,,0.00,Acu-Link.com,2013-03-01 14:38:00,
2013-03-01 09:53:00,34.9,29.3,29.71,ESE,112,4.3,-999.0,80,-99.99,,,0.00,Acu-Link.com,2013-03-01 14:53:00,
2013-03-01 10:09:00,35.1,28.6,29.71,NNW,337,1.6,-999.0,77,-99.99,,,0.00,Acu-Link.com,2013-03-01 15:09:00,
2013-03-01 10:24:00,35.6,28.8,29.71,NE,45,4.3,-999.0,76,-99.99,,,0.00,Acu-Link.com,2013-03-01 15:24:00,
2013-03-01 10:39:00,34.7,27.9,29.71,WSW,247,2.2,-999.0,76,-99.99,,,0.00,Acu-Link.com,2013-03-01 15:39:00,
2013-03-01 10:54:00,35.6,28.1,29.71,SSE,157,2.7,-999.0,74,-99.99,,,0.00,Acu-Link.com,2013-03-01 15:54:00,
2013-03-01 11:09:00,36.0,28.5,29.72,WSW,247,2.7,-999.0,74,-99.99,,,0.00,Acu-Link.com,2013-03-01 16:09:00,
2013-03-01 11:25:00,36.3,27.8,29.72,South,180,2.2,-999.0,71,-99.99,,,0.00,Acu-Link.com,2013-03-01 16:25:00,
2013-03-01 11:40:00,37.0,29.5,29.71,East,90,4.7,-999.0,74,-99.99,,,0.00,Acu-Link.com,2013-03-01 16:40:00,
2013-03-01 11:55:00,35.8,28.6,29.72,West,270,1.6,-999.0,75,-99.99,,,0.00,Acu-Link.com,2013-03-01 16:55:00,
2013-03-01 12:10:00,37.0,29.2,29.72,ESE,112,5.8,-999.0,73,-99.99,,,0.00,Acu-Link.com,2013-03-01 17:10:00,
2013-03-01 12:26:00,36.1,29.3,29.71,East,90,7.4,-999.0,76,-99.99,,,0.00,Acu-Link.com,2013-03-01 17:26:00,
2013-03-01 12:41:00,36.3,29.2,29.71,ENE,67,3.8,-999.0,75,-99.99,,,0.00,Acu-Link.com,2013-03-01 17:41:00,
2013-03-01 12:56:00,36.3,29.5,29.70,East,90,4.7,-999.0,76,-99.99,,,0.00,Acu-Link.com,2013-03-01 17:56:00,
2013-03-01 13:11:00,35.8,29.6,29.70,SE,135,4.3,-999.0,78,-99.99,,,0.00,Acu-Link.com,2013-03-01 18:11:00,
2013-03-01 13:26:00,35.6,29.4,29.69,ENE,67,5.8,-999.0,78,-99.99,,,0.00,Acu-Link.com,2013-03-01 18:26:00,
2013-03-01 13:42:00,35.6,29.7,29.69,NNE,22,1.6,-999.0,79,-99.99,,,0.00,Acu-Link.com,2013-03-01 18:42:00,
2013-03-01 13:57:00,35.8,29.3,29.68,SSE,157,2.7,-999.0,77,-99.99,,,0.00,Acu-Link.com,2013-03-01 18:57:00,
2013-03-01 14:12:00,36.3,29.2,29.68,SSE,157,3.8,-999.0,75,-99.99,,,0.00,Acu-Link.com,2013-03-01 19:12:00,
2013-03-01 14:27:00,37.0,28.9,29.67,East,90,3.8,-999.0,72,-99.99,,,0.00,Acu-Link.com,2013-03-01 19:27:00,
2013-03-01 14:42:00,37.0,29.2,29.67,NNE,22,6.3,-999.0,73,-99.99,,,0.00,Acu-Link.com,2013-03-01 19:42:00,
2013-03-01 14:58:00,36.9,29.4,29.67,SSW,202,6.3,-999.0,74,-99.99,,,0.00,Acu-Link.com,2013-03-01 19:58:00,
2013-03-01 15:13:00,37.2,29.4,29.67,South,180,3.8,-999.0,73,-99.99,,,0.00,Acu-Link.com,2013-03-01 20:13:00,
2013-03-01 15:28:00,37.0,29.5,29.68,South,180,2.7,-999.0,74,-99.99,,,0.00,Acu-Link.com,2013-03-01 20:28:00,
2013-03-01 15:43:00,36.7,29.5,29.67,East,90,3.1,-999.0,75,-99.99,,,0.00,Acu-Link.com,2013-03-01 20:43:00,
2013-03-01 15:59:00,36.7,29.5,29.68,South,180,2.7,-999.0,75,-99.99,,,0.00,Acu-Link.com,2013-03-01 20:59:00,
2013-03-01 16:14:00,35.6,29.1,29.68,East,90,2.2,-999.0,77,-99.99,,,0.00,Acu-Link.com,2013-03-01 21:14:00,
2013-03-01 16:29:00,34.3,29.1,29.68,West,270,6.3,-999.0,81,-99.99,,,0.00,Acu-Link.com,2013-03-01 21:29:00,
2013-03-01 16:44:00,33.8,29.2,29.68,NNW,337,2.7,-999.0,83,-99.99,,,0.00,Acu-Link.com,2013-03-01 21:44:00,
2013-03-01 16:59:00,33.6,29.0,29.69,NE,45,2.7,-999.0,83,-99.99,,,0.00,Acu-Link.com,2013-03-01 21:59:00,
2013-03-01 17:15:00,33.6,29.3,29.68,WNW,292,2.7,-999.0,84,-99.99,,,0.00,Acu-Link.com,2013-03-01 22:15:00,
2013-03-01 17:30:00,33.3,29.2,29.68,East,90,3.1,-999.0,85,-99.99,,,0.00,Acu-Link.com,2013-03-01 22:30:00,
2013-03-01 17:45:00,33.3,28.7,29.69,NW,315,3.1,-999.0,83,-99.99,,,0.00,Acu-Link.com,2013-03-01 22:45:00,
2013-03-01 18:00:00,33.1,28.5,29.69,East,90,3.8,-999.0,83,-99.99,,,0.00,Acu-Link.com,2013-03-01 23:00:00,
2013-03-01 18:15:00,33.1,28.8,29.70,South,180,1.6,-999.0,84,-99.99,,,0.00,Acu-Link.com,2013-03-01 23:15:00,
2013-03-01 18:31:00,32.9,28.6,29.69,SE,135,2.2,-999.0,84,-99.99,,,0.00,Acu-Link.com,2013-03-01 23:31:00,
2013-03-01 18:46:00,33.1,28.5,29.69,South,180,2.2,-999.0,83,-99.99,,,0.00,Acu-Link.com,2013-03-01 23:46:00,
2013-03-01 19:01:00,33.1,28.5,29.70,ESE,112,2.2,-999.0,83,-99.99,,,0.00,Acu-Link.com,2013-03-02 00:01:00,
2013-03-01 19:16:00,32.9,28.9,29.70,SSW,202,1.6,-999.0,85,-99.99,,,0.00,Acu-Link.com,2013-03-02 00:16:00,
2013-03-01 19:31:00,32.9,29.2,29.70,ESE,112,2.7,-999.0,86,-99.99,,,0.00,Acu-Link.com,2013-03-02 00:31:00,
2013-03-01 19:47:00,32.7,28.7,29.70,SW,225,1.6,-999.0,85,-99.99,,,0.00,Acu-Link.com,2013-03-02 00:47:00,
2013-03-01 20:02:00,32.5,28.5,29.70,West,270,3.8,-999.0,85,-99.99,,,0.00,Acu-Link.com,2013-03-02 01:02:00,
2013-03-01 20:17:00,32.5,28.8,29.70,ESE,112,1.6,-999.0,86,-99.99,,,0.00,Acu-Link.com,2013-03-02 01:17:00,
2013-03-01 20:32:00,32.4,28.6,29.69,WSW,247,1.1,-999.0,86,-99.99,,,0.00,Acu-Link.com,2013-03-02 01:32:00,
2013-03-01 20:47:00,32.4,28.9,29.71,ESE,112,2.7,-999.0,87,-99.99,,,0.00,Acu-Link.com,2013-03-02 01:47:00,
2013-03-01 21:03:00,32.4,28.6,29.71,East,90,3.1,-999.0,86,-99.99,,,0.00,Acu-Link.com,2013-03-02 02:03:00,
2013-03-01 21:18:00,32.4,28.6,29.71,South,180,0.0,-999.0,86,-99.99,,,0.00,Acu-Link.com,2013-03-02 02:18:00,
2013-03-01 21:33:00,32.4,28.9,29.71,SSW,202,1.6,-999.0,87,-99.99,,,0.00,Acu-Link.com,2013-03-02 02:33:00,
2013-03-01 21:48:00,32.4,28.6,29.70,ESE,112,2.7,-999.0,86,-99.99,,,0.00,Acu-Link.com,2013-03-02 02:48:00,
2013-03-01 22:04:00,32.2,28.5,29.70,ENE,67,5.8,-999.0,86,-99.99,,,0.00,Acu-Link.com,2013-03-02 03:04:00,
2013-03-01 22:19:00,32.0,28.6,29.70,NE,45,3.1,-999.0,87,-99.99,,,0.00,Acu-Link.com,2013-03-02 03:19:00,
2013-03-01 22:34:00,32.0,28.9,29.70,ESE,112,2.2,-999.0,88,-99.99,,,0.00,Acu-Link.com,2013-03-02 03:34:00,
2013-03-01 22:49:00,31.8,28.7,29.70,East,90,2.2,-999.0,88,-99.99,,,0.00,Acu-Link.com,2013-03-02 03:49:00,
2013-03-01 23:04:00,31.8,29.0,29.70,ENE,67,3.8,-999.0,89,-99.99,,,0.00,Acu-Link.com,2013-03-02 04:04:00,
2013-03-01 23:20:00,31.5,28.6,29.69,ENE,67,2.2,-999.0,89,-99.99,,,0.00,Acu-Link.com,2013-03-02 04:20:00,
2013-03-01 23:35:00,31.3,28.4,29.69,NNE,22,1.6,-999.0,89,-99.99,,,0.00,Acu-Link.com,2013-03-02 04:35:00,
2013-03-01 23:50:00,31.1,28.5,29.69,West,270,2.7,-999.0,90,-99.99,,,0.00,Acu-Link.com,2013-03-02 04:50:00,